Time;durP1;ratioP1;P1;durP2;ratioP2;P2;SDS_P1;SDS_P2;PMS_P1;PMS_P2;Temp;Humidity;BMP_temperature;BMP_pressure;BME280_temperature;BME280_humidity;BME280_pressure;Samples;Min_cycle;Max_cycle;Signal;HPM_P1;HPM_P2
2021/12/30 00:01:08;;;;;;;1.95;1.05;;;;;;;;;;5098138;28;20189;-50
2021/12/30 00:03:34;;;;;;;0.93;0.93;;;;;;;;;;5103640;28;20213;-49
2021/12/30 00:06:01;;;;;;;1.27;1.05;;;;;;;;;;5098951;28;20201;-49
2021/12/30 00:08:27;;;;;;;1.80;1.00;;;;;;;;;;5104831;28;20180;-49
2021/12/30 00:10:53;;;;;;;1.00;1.00;;;;;;;;;;5109047;28;20199;-48
2021/12/30 00:13:20;;;;;;;1.30;1.20;;;;;;;;;;5105551;28;20182;-49
2021/12/30 00:15:46;;;;;;;1.23;1.13;;;;;;;;;;5094507;28;20205;-49
2021/12/30 00:18:12;;;;;;;1.40;0.90;;;;;;;;;;5108745;28;20230;-49
2021/12/30 00:20:39;;;;;;;1.65;1.10;;;;;;;;;;5101519;28;20181;-49
2021/12/30 00:23:07;;;;;;;1.40;1.23;;;;;;;;;;5099361;28;20182;-48
2021/12/30 00:25:39;;;;;;;2.25;0.93;;;;;;;;;;5093992;28;20435;-47
2021/12/30 00:28:23;;;;;;;0.90;0.90;;;;;;;;;;5100902;28;20174;-49
2021/12/30 00:30:50;;;;;;;1.60;1.38;;;;;;;;;;5085846;28;20724;-48
2021/12/30 00:33:16;;;;;;;1.13;1.00;;;;;;;;;;5106080;28;20177;-49
2021/12/30 00:35:42;;;;;;;1.05;0.95;;;;;;;;;;5092776;28;20290;-48
2021/12/30 00:38:09;;;;;;;2.03;1.08;;;;;;;;;;5093828;28;20220;-47
2021/12/30 00:40:36;;;;;;;1.52;1.10;;;;;;;;;;5100859;28;20197;-47
2021/12/30 00:43:02;;;;;;;1.10;1.00;;;;;;;;;;5108553;28;20186;-48
2021/12/30 00:45:29;;;;;;;1.10;1.00;;;;;;;;;;5092145;28;20695;-49
2021/12/30 00:47:55;;;;;;;0.95;0.95;;;;;;;;;;5092349;28;20564;-49
2021/12/30 00:50:21;;;;;;;1.00;1.00;;;;;;;;;;5090050;28;20185;-49
2021/12/30 00:52:47;;;;;;;1.08;0.98;;;;;;;;;;5091981;28;20256;-49
2021/12/30 00:55:13;;;;;;;0.98;0.90;;;;;;;;;;5091829;28;20217;-49
2021/12/30 00:57:41;;;;;;;1.20;1.10;;;;;;;;;;5094150;28;20561;-49
2021/12/30 01:00:08;;;;;;;0.88;0.88;;;;;;;;;;5086991;28;20274;-49
2021/12/30 01:02:34;;;;;;;0.98;0.88;;;;;;;;;;5093419;28;20247;-49
2021/12/30 01:05:00;;;;;;;0.98;0.90;;;;;;;;;;5089558;28;20178;-49
2021/12/30 01:07:26;;;;;;;1.77;0.93;;;;;;;;;;5092750;28;20209;-48
2021/12/30 01:09:52;;;;;;;1.20;1.10;;;;;;;;;;5092313;28;20279;-48
2021/12/30 01:12:19;;;;;;;1.23;1.10;;;;;;;;;;5093817;28;20561;-49
2021/12/30 01:14:47;;;;;;;1.80;0.90;;;;;;;;;;5088574;28;20201;-48
2021/12/30 01:17:19;;;;;;;0.88;0.88;;;;;;;;;;5090809;28;20166;-49
2021/12/30 01:19:45;;;;;;;2.15;0.90;;;;;;;;;;5094761;28;20260;-49
2021/12/30 01:22:16;;;;;;;0.90;0.90;;;;;;;;;;5094732;28;20222;-49
2021/12/30 01:24:42;;;;;;;0.95;0.85;;;;;;;;;;5093416;28;20194;-48
2021/12/30 01:27:09;;;;;;;1.05;0.85;;;;;;;;;;5093959;28;20322;-48
2021/12/30 01:29:35;;;;;;;1.00;0.90;;;;;;;;;;5093903;28;20189;-49
2021/12/30 01:32:01;;;;;;;0.63;0.63;;;;;;;;;;5092761;28;20224;-48
2021/12/30 01:34:28;;;;;;;1.02;0.95;;;;;;;;;;5092473;28;20198;-48
2021/12/30 01:36:54;;;;;;;0.77;0.77;;;;;;;;;;5093567;28;20628;-48
2021/12/30 01:39:22;;;;;;;0.75;0.75;;;;;;;;;;5095203;28;20350;-49
2021/12/30 01:41:48;;;;;;;0.80;0.80;;;;;;;;;;5093634;28;20166;-49
2021/12/30 01:44:15;;;;;;;1.15;0.70;;;;;;;;;;5087234;28;20270;-49
2021/12/30 01:46:42;;;;;;;0.70;0.70;;;;;;;;;;5096165;28;20280;-49
2021/12/30 01:49:10;;;;;;;0.70;0.70;;;;;;;;;;5117220;27;20238;-48
2021/12/30 01:51:36;;;;;;;1.00;0.90;;;;;;;;;;5113478;28;20449;-48
2021/12/30 01:54:02;;;;;;;1.10;0.80;;;;;;;;;;5114841;28;20230;-49
2021/12/30 01:56:29;;;;;;;0.70;0.70;;;;;;;;;;5113135;28;20185;-49
2021/12/30 01:58:55;;;;;;;0.80;0.70;;;;;;;;;;5115064;28;20260;-49
2021/12/30 02:01:21;;;;;;;0.82;0.70;;;;;;;;;;5113173;28;20193;-49
2021/12/30 02:03:47;;;;;;;0.82;0.70;;;;;;;;;;5115354;28;20795;-48
2021/12/30 02:06:13;;;;;;;0.55;0.55;;;;;;;;;;5111867;28;20188;-49
2021/12/30 02:08:39;;;;;;;1.35;0.75;;;;;;;;;;5111815;28;20189;-49
2021/12/30 02:11:05;;;;;;;0.57;0.57;;;;;;;;;;5114132;28;20182;-48
2021/12/30 02:13:31;;;;;;;0.80;0.80;;;;;;;;;;5113294;28;20173;-48
2021/12/30 02:16:01;;;;;;;0.85;0.85;;;;;;;;;;5112463;28;20564;-49
2021/12/30 02:18:28;;;;;;;1.67;0.70;;;;;;;;;;5112759;28;20213;-49
2021/12/30 02:20:58;;;;;;;0.60;0.60;;;;;;;;;;5113866;28;20184;-49
2021/12/30 02:23:26;;;;;;;0.77;0.70;;;;;;;;;;5113669;28;20181;-49
2021/12/30 02:25:53;;;;;;;0.50;0.50;;;;;;;;;;5110207;28;21102;-48
2021/12/30 02:28:23;;;;;;;0.60;0.60;;;;;;;;;;5113029;28;20177;-47
2021/12/30 02:30:48;;;;;;;0.60;0.60;;;;;;;;;;5109608;28;20177;-49
2021/12/30 02:33:14;;;;;;;1.00;0.70;;;;;;;;;;5114080;28;20185;-49
2021/12/30 02:35:41;;;;;;;0.75;0.70;;;;;;;;;;5113536;28;20209;-48
2021/12/30 02:38:07;;;;;;;0.60;0.60;;;;;;;;;;5113063;28;20192;-49
2021/12/30 02:40:39;;;;;;;0.60;0.60;;;;;;;;;;5113546;28;20181;-48
2021/12/30 02:43:07;;;;;;;0.68;0.63;;;;;;;;;;5112640;28;20624;-49
2021/12/30 02:45:33;;;;;;;0.70;0.70;;;;;;;;;;5112711;28;20301;-49
2021/12/30 02:47:59;;;;;;;0.75;0.75;;;;;;;;;;5097906;28;20198;-49
2021/12/30 02:50:25;;;;;;;0.65;0.63;;;;;;;;;;5094741;28;20194;-49
2021/12/30 02:52:51;;;;;;;0.60;0.60;;;;;;;;;;5094045;28;20260;-49
2021/12/30 02:55:17;;;;;;;0.70;0.70;;;;;;;;;;5091671;28;20209;-49
2021/12/30 02:57:43;;;;;;;0.60;0.60;;;;;;;;;;5092716;28;20181;-49
2021/12/30 03:00:10;;;;;;;0.77;0.60;;;;;;;;;;5092792;28;20208;-49
2021/12/30 03:02:39;;;;;;;0.60;0.60;;;;;;;;;;5089911;28;20249;-49
2021/12/30 03:05:07;;;;;;;0.70;0.70;;;;;;;;;;5092035;28;20216;-48
2021/12/30 03:07:33;;;;;;;0.93;0.50;;;;;;;;;;5092959;28;20190;-47
2021/12/30 03:09:59;;;;;;;0.43;0.43;;;;;;;;;;5091346;28;20182;-49
2021/12/30 03:12:25;;;;;;;0.60;0.60;;;;;;;;;;5075188;28;20223;-49
2021/12/30 03:14:51;;;;;;;0.60;0.60;;;;;;;;;;5084855;28;20198;-49
2021/12/30 03:17:17;;;;;;;2.35;0.60;;;;;;;;;;5092236;28;20555;-49
2021/12/30 03:19:44;;;;;;;0.55;0.55;;;;;;;;;;5091871;28;20599;-49
2021/12/30 03:22:10;;;;;;;0.60;0.60;;;;;;;;;;5093899;28;20311;-48
2021/12/30 03:24:36;;;;;;;0.60;0.60;;;;;;;;;;5091366;28;20268;-49
2021/12/30 03:27:05;;;;;;;0.60;0.60;;;;;;;;;;5091252;28;20548;-49
2021/12/30 03:29:31;;;;;;;0.57;0.52;;;;;;;;;;5090721;28;20185;-49
2021/12/30 03:31:57;;;;;;;0.40;0.40;;;;;;;;;;5091316;28;20231;-49
2021/12/30 03:34:24;;;;;;;0.50;0.50;;;;;;;;;;5088768;28;20600;-49
2021/12/30 03:36:50;;;;;;;0.95;0.65;;;;;;;;;;5091569;28;20567;-48
2021/12/30 03:39:16;;;;;;;0.63;0.63;;;;;;;;;;5092225;28;20174;-49
2021/12/30 03:41:42;;;;;;;0.50;0.50;;;;;;;;;;5092765;28;20421;-48
2021/12/30 03:44:08;;;;;;;0.60;0.60;;;;;;;;;;5090980;28;20193;-49
2021/12/30 03:46:34;;;;;;;0.47;0.47;;;;;;;;;;5090117;28;20276;-49
2021/12/30 03:49:01;;;;;;;0.60;0.60;;;;;;;;;;5089398;28;20315;-48
2021/12/30 03:51:27;;;;;;;0.60;0.60;;;;;;;;;;5091580;28;20183;-49
2021/12/30 03:53:55;;;;;;;0.60;0.60;;;;;;;;;;5092645;28;20259;-49
2021/12/30 03:56:24;;;;;;;0.63;0.60;;;;;;;;;;5091163;28;20576;-49
2021/12/30 03:58:50;;;;;;;0.50;0.43;;;;;;;;;;5090239;28;20448;-49
2021/12/30 04:01:19;;;;;;;0.50;0.50;;;;;;;;;;5091900;28;20200;-48
2021/12/30 04:03:45;;;;;;;0.60;0.60;;;;;;;;;;5084214;28;20182;-49
2021/12/30 04:06:11;;;;;;;0.50;0.50;;;;;;;;;;5090578;28;20181;-49
2021/12/30 04:08:37;;;;;;;0.57;0.57;;;;;;;;;;5091522;28;20611;-49
2021/12/30 04:11:03;;;;;;;0.40;0.40;;;;;;;;;;5074456;28;20265;-49
2021/12/30 04:13:30;;;;;;;0.60;0.60;;;;;;;;;;5089840;28;20585;-48
2021/12/30 04:15:56;;;;;;;0.68;0.57;;;;;;;;;;5087707;28;20205;-49
2021/12/30 04:18:23;;;;;;;0.40;0.40;;;;;;;;;;5095033;28;20174;-49
2021/12/30 04:20:49;;;;;;;0.57;0.40;;;;;;;;;;5084750;28;20180;-49
2021/12/30 04:23:15;;;;;;;0.40;0.40;;;;;;;;;;5088762;28;20264;-49
2021/12/30 04:25:41;;;;;;;0.63;0.60;;;;;;;;;;5088981;28;20186;-48
2021/12/30 04:28:07;;;;;;;0.40;0.40;;;;;;;;;;5091942;28;20186;-49
2021/12/30 04:30:33;;;;;;;0.40;0.40;;;;;;;;;;5091494;28;20188;-49
2021/12/30 04:32:59;;;;;;;0.60;0.55;;;;;;;;;;5094302;28;20668;-49
2021/12/30 04:35:25;;;;;;;0.65;0.50;;;;;;;;;;5094369;28;20258;-48
2021/12/30 04:37:51;;;;;;;0.90;0.50;;;;;;;;;;5095493;28;20592;-48
2021/12/30 04:40:17;;;;;;;0.47;0.47;;;;;;;;;;5095935;28;20170;-49
2021/12/30 04:42:43;;;;;;;0.45;0.45;;;;;;;;;;5094079;28;20174;-48
2021/12/30 04:45:11;;;;;;;0.40;0.40;;;;;;;;;;5094251;28;20232;-49
2021/12/30 04:47:40;;;;;;;0.40;0.40;;;;;;;;;;5094943;28;20197;-49
2021/12/30 04:50:08;;;;;;;0.35;0.35;;;;;;;;;;5093685;28;20450;-47
2021/12/30 04:52:34;;;;;;;0.40;0.40;;;;;;;;;;5093973;28;20186;-49
2021/12/30 04:55:00;;;;;;;0.43;0.43;;;;;;;;;;5092585;28;20255;-47
2021/12/30 04:57:26;;;;;;;0.50;0.50;;;;;;;;;;5096372;28;20554;-49
2021/12/30 04:59:52;;;;;;;0.50;0.50;;;;;;;;;;5094955;28;20192;-49
2021/12/30 05:02:18;;;;;;;0.50;0.50;;;;;;;;;;5086174;28;20247;-49
2021/12/30 05:04:44;;;;;;;0.60;0.50;;;;;;;;;;5093383;28;20188;-49
2021/12/30 05:07:10;;;;;;;0.50;0.50;;;;;;;;;;5096010;28;20454;-49
2021/12/30 05:09:36;;;;;;;1.40;0.60;;;;;;;;;;5091054;28;20185;-48
2021/12/30 05:12:02;;;;;;;2.53;0.60;;;;;;;;;;5093036;28;20200;-48
2021/12/30 05:14:28;;;;;;;0.60;0.50;;;;;;;;;;5093356;28;20225;-49
2021/12/30 05:16:55;;;;;;;1.08;0.77;;;;;;;;;;5103023;28;20783;-49
2021/12/30 05:19:21;;;;;;;1.55;0.70;;;;;;;;;;5094993;28;20174;-49
2021/12/30 05:21:47;;;;;;;3.78;1.05;;;;;;;;;;5094859;28;20186;-48
2021/12/30 05:24:17;;;;;;;1.02;0.80;;;;;;;;;;5094037;28;20241;-49
2021/12/30 05:26:42;;;;;;;2.35;1.10;;;;;;;;;;5094544;28;20239;-49
2021/12/30 05:29:09;;;;;;;3.28;0.90;;;;;;;;;;5095929;28;20208;-49
2021/12/30 05:31:35;;;;;;;3.95;1.23;;;;;;;;;;5092605;28;20189;-49
2021/12/30 05:34:01;;;;;;;2.05;0.93;;;;;;;;;;5094661;28;20186;-49
2021/12/30 05:36:28;;;;;;;1.98;1.00;;;;;;;;;;5094128;28;20276;-49
2021/12/30 05:38:54;;;;;;;3.03;1.10;;;;;;;;;;5093658;28;20188;-48
2021/12/30 05:41:20;;;;;;;1.77;1.00;;;;;;;;;;5091296;28;20179;-48
2021/12/30 05:43:46;;;;;;;2.47;1.23;;;;;;;;;;5091664;28;20512;-48
2021/12/30 05:46:12;;;;;;;3.35;1.02;;;;;;;;;;5100599;28;20196;-48
2021/12/30 05:48:38;;;;;;;2.75;1.08;;;;;;;;;;5112947;28;20408;-49
2021/12/30 05:51:04;;;;;;;3.08;1.10;;;;;;;;;;5113968;28;20192;-47
2021/12/30 05:53:30;;;;;;;3.17;1.10;;;;;;;;;;5113611;28;20209;-49
2021/12/30 05:55:57;;;;;;;1.45;1.00;;;;;;;;;;5112943;28;20328;-49
2021/12/30 05:58:23;;;;;;;2.65;1.10;;;;;;;;;;5114210;28;20238;-48
2021/12/30 06:00:49;;;;;;;2.83;1.13;;;;;;;;;;5114323;28;20529;-49
2021/12/30 06:03:19;;;;;;;3.80;0.90;;;;;;;;;;5113384;28;20177;-48
2021/12/30 06:05:45;;;;;;;2.45;1.10;;;;;;;;;;5113662;28;20190;-48
2021/12/30 06:08:11;;;;;;;2.53;1.20;;;;;;;;;;5115642;28;20208;-48
2021/12/30 06:10:37;;;;;;;3.60;1.23;;;;;;;;;;5113957;28;20189;-49
2021/12/30 06:13:03;;;;;;;1.92;1.17;;;;;;;;;;5113181;28;20181;-48
2021/12/30 06:15:29;;;;;;;1.67;1.00;;;;;;;;;;5111799;28;20477;-49
2021/12/30 06:17:55;;;;;;;1.35;0.80;;;;;;;;;;5120991;27;20310;-48
2021/12/30 06:20:21;;;;;;;1.45;0.80;;;;;;;;;;5113096;28;20627;-49
2021/12/30 06:22:49;;;;;;;3.78;1.10;;;;;;;;;;5113071;28;20206;-49
2021/12/30 06:25:15;;;;;;;1.40;0.98;;;;;;;;;;5111257;28;20267;-49
2021/12/30 06:27:41;;;;;;;3.67;1.00;;;;;;;;;;5114459;28;20177;-49
2021/12/30 06:30:08;;;;;;;1.65;1.00;;;;;;;;;;5111650;28;20185;-49
2021/12/30 06:32:34;;;;;;;5.32;1.20;;;;;;;;;;5111997;28;20679;-49
2021/12/30 06:35:00;;;;;;;1.40;1.10;;;;;;;;;;5113461;28;20197;-49
2021/12/30 06:37:26;;;;;;;2.05;1.17;;;;;;;;;;5114673;28;20186;-48
2021/12/30 06:39:52;;;;;;;1.45;1.10;;;;;;;;;;5113948;28;20203;-48
2021/12/30 06:42:18;;;;;;;2.70;1.08;;;;;;;;;;5113409;28;20717;-48
2021/12/30 06:44:44;;;;;;;1.77;1.08;;;;;;;;;;5112424;28;20230;-49
2021/12/30 06:47:10;;;;;;;3.03;1.05;;;;;;;;;;5103505;28;20194;-49
2021/12/30 06:49:37;;;;;;;1.42;1.20;;;;;;;;;;5091167;28;20182;-49
2021/12/30 06:52:05;;;;;;;1.35;0.85;;;;;;;;;;5093470;28;20178;-49
2021/12/30 06:54:31;;;;;;;1.42;0.93;;;;;;;;;;5091991;28;20221;-49
2021/12/30 06:57:00;;;;;;;2.25;1.00;;;;;;;;;;5094182;28;20225;-50
2021/12/30 06:59:27;;;;;;;1.85;1.00;;;;;;;;;;5091681;28;20500;-49
2021/12/30 07:01:53;;;;;;;1.50;1.10;;;;;;;;;;5093526;28;20235;-50
2021/12/30 07:04:19;;;;;;;2.40;1.13;;;;;;;;;;5087503;28;20181;-49
2021/12/30 07:06:45;;;;;;;1.45;1.05;;;;;;;;;;5093011;28;20200;-50
2021/12/30 07:09:11;;;;;;;1.75;1.13;;;;;;;;;;5093031;28;20178;-49
2021/12/30 07:11:37;;;;;;;1.60;1.00;;;;;;;;;;5074342;28;20186;-50
2021/12/30 07:14:03;;;;;;;1.55;1.00;;;;;;;;;;5091120;28;20217;-50
2021/12/30 07:16:29;;;;;;;1.33;1.08;;;;;;;;;;5091947;28;20181;-50
2021/12/30 07:18:56;;;;;;;1.08;0.90;;;;;;;;;;5091581;28;20182;-50
2021/12/30 07:21:22;;;;;;;1.77;0.98;;;;;;;;;;5092349;28;20548;-50
2021/12/30 07:23:48;;;;;;;1.38;0.93;;;;;;;;;;5085142;28;20178;-50
2021/12/30 07:26:14;;;;;;;1.73;1.10;;;;;;;;;;5092925;28;20482;-49
2021/12/30 07:28:40;;;;;;;1.20;1.00;;;;;;;;;;5091998;28;20228;-49
2021/12/30 07:31:07;;;;;;;1.55;1.20;;;;;;;;;;5092228;28;20208;-49
2021/12/30 07:33:33;;;;;;;1.48;1.13;;;;;;;;;;5087551;28;20805;-50
2021/12/30 07:35:59;;;;;;;1.38;0.82;;;;;;;;;;5086594;28;20513;-50
2021/12/30 07:38:25;;;;;;;1.77;1.02;;;;;;;;;;5082558;28;20194;-48
2021/12/30 07:40:51;;;;;;;4.00;1.20;;;;;;;;;;5090792;28;20223;-49
2021/12/30 07:43:17;;;;;;;3.47;0.90;;;;;;;;;;5092259;28;20434;-49
2021/12/30 07:45:43;;;;;;;6.38;1.35;;;;;;;;;;5087790;28;20185;-49
2021/12/30 07:48:09;;;;;;;4.15;1.13;;;;;;;;;;5097758;28;20186;-49
2021/12/30 07:50:35;;;;;;;4.22;1.60;;;;;;;;;;5098559;28;20553;-49
2021/12/30 07:53:01;;;;;;;4.95;1.60;;;;;;;;;;5107530;28;20237;-49
2021/12/30 07:55:27;;;;;;;4.47;2.03;;;;;;;;;;5109004;28;20209;-49
2021/12/30 07:57:57;;;;;;;8.95;1.90;;;;;;;;;;5111493;28;20184;-49
2021/12/30 08:00:23;;;;;;;5.28;2.00;;;;;;;;;;5097576;28;20213;-48
2021/12/30 08:02:49;;;;;;;6.28;1.60;;;;;;;;;;5095196;28;20177;-49
2021/12/30 08:05:16;;;;;;;4.65;2.13;;;;;;;;;;5096383;28;20208;-49
2021/12/30 08:07:45;;;;;;;6.35;1.42;;;;;;;;;;5112790;28;20701;-49
2021/12/30 08:10:14;;;;;;;3.78;1.77;;;;;;;;;;5095538;28;20188;-48
2021/12/30 08:12:40;;;;;;;6.00;1.98;;;;;;;;;;5099773;28;20181;-49
2021/12/30 08:15:07;;;;;;;3.10;1.45;;;;;;;;;;5097899;28;20475;-49
2021/12/30 08:17:33;;;;;;;2.25;1.48;;;;;;;;;;5101614;28;20173;-49
2021/12/30 08:19:59;;;;;;;6.35;1.48;;;;;;;;;;5089934;28;20181;-50
2021/12/30 08:22:26;;;;;;;9.32;1.50;;;;;;;;;;5091358;28;20193;-49
2021/12/30 08:24:52;;;;;;;7.75;1.45;;;;;;;;;;5100000;28;20187;-49
2021/12/30 08:27:18;;;;;;;3.55;1.38;;;;;;;;;;5109339;28;20184;-48
2021/12/30 08:29:44;;;;;;;3.45;1.58;;;;;;;;;;5094130;28;20464;-50
2021/12/30 08:32:11;;;;;;;4.38;1.45;;;;;;;;;;5103410;28;20185;-49
2021/12/30 08:34:37;;;;;;;4.32;1.58;;;;;;;;;;5109129;28;20202;-48
2021/12/30 08:37:04;;;;;;;5.22;1.38;;;;;;;;;;5096883;28;20463;-49
2021/12/30 08:39:30;;;;;;;2.55;1.35;;;;;;;;;;5101456;28;20235;-49
2021/12/30 08:41:57;;;;;;;4.05;1.40;;;;;;;;;;5104894;28;20192;-49
2021/12/30 08:44:24;;;;;;;4.80;1.50;;;;;;;;;;5087409;28;20190;-49
2021/12/30 08:46:51;;;;;;;4.32;1.63;;;;;;;;;;5095657;28;20193;-49
2021/12/30 08:49:17;;;;;;;4.38;1.52;;;;;;;;;;5088771;28;20186;-49
2021/12/30 08:51:43;;;;;;;4.07;1.70;;;;;;;;;;5091343;28;20568;-48
2021/12/30 08:54:09;;;;;;;5.72;1.38;;;;;;;;;;5090122;28;20178;-49
2021/12/30 08:56:35;;;;;;;2.63;1.30;;;;;;;;;;5091390;28;20174;-49
2021/12/30 08:59:01;;;;;;;3.72;1.02;;;;;;;;;;5091539;28;20572;-49
2021/12/30 09:01:27;;;;;;;4.47;1.63;;;;;;;;;;5090865;28;20189;-49
2021/12/30 09:03:53;;;;;;;5.72;1.45;;;;;;;;;;5091028;28;20201;-49
2021/12/30 09:06:19;;;;;;;1.67;1.23;;;;;;;;;;5091114;28;20583;-49
2021/12/30 09:08:45;;;;;;;3.40;1.30;;;;;;;;;;5090683;28;20178;-48
2021/12/30 09:11:11;;;;;;;1.83;1.02;;;;;;;;;;5090841;28;20220;-48
2021/12/30 09:13:37;;;;;;;2.13;1.25;;;;;;;;;;5090502;28;20222;-48
2021/12/30 09:16:03;;;;;;;3.08;1.30;;;;;;;;;;5094181;28;20516;-48
2021/12/30 09:18:30;;;;;;;2.72;1.23;;;;;;;;;;5097087;28;20229;-49
2021/12/30 09:20:56;;;;;;;2.40;1.30;;;;;;;;;;5093936;28;20678;-49
2021/12/30 09:23:22;;;;;;;4.45;1.40;;;;;;;;;;5095070;28;20189;-48
2021/12/30 09:25:48;;;;;;;3.80;1.38;;;;;;;;;;5091754;28;20232;-49
2021/12/30 09:28:14;;;;;;;1.55;1.10;;;;;;;;;;5092494;28;20189;-49
2021/12/30 09:30:41;;;;;;;2.05;1.20;;;;;;;;;;5091700;28;20213;-49
2021/12/30 09:33:08;;;;;;;4.30;1.45;;;;;;;;;;5095565;28;20178;-48
2021/12/30 09:35:34;;;;;;;2.53;1.20;;;;;;;;;;5093964;28;20296;-48
2021/12/30 09:38:00;;;;;;;2.53;1.20;;;;;;;;;;5095244;28;20445;-48
2021/12/30 09:40:27;;;;;;;2.63;1.30;;;;;;;;;;5094282;28;20185;-48
2021/12/30 09:43:01;;;;;;;1.95;1.02;;;;;;;;;;5092429;28;20186;-48
2021/12/30 09:45:27;;;;;;;2.58;1.33;;;;;;;;;;5092489;28;20186;-47
2021/12/30 09:47:55;;;;;;;1.45;0.93;;;;;;;;;;5110514;27;20275;-49
2021/12/30 09:50:23;;;;;;;2.15;1.30;;;;;;;;;;5114649;28;20285;-49
2021/12/30 09:52:50;;;;;;;2.28;1.10;;;;;;;;;;5113392;28;20205;-49
2021/12/30 09:55:16;;;;;;;2.13;1.20;;;;;;;;;;5114026;28;20200;-48
2021/12/30 09:57:42;;;;;;;1.30;0.90;;;;;;;;;;5113545;28;20177;-49
2021/12/30 10:00:10;;;;;;;1.77;1.25;;;;;;;;;;5113749;28;20513;-49
2021/12/30 10:02:36;;;;;;;1.48;1.20;;;;;;;;;;5113331;28;20247;-49
2021/12/30 10:05:07;;;;;;;1.10;1.00;;;;;;;;;;5114330;28;20212;-49
2021/12/30 10:07:33;;;;;;;2.15;1.15;;;;;;;;;;5098090;28;20177;-49
2021/12/30 10:10:03;;;;;;;2.08;1.00;;;;;;;;;;5105753;28;20242;-49
2021/12/30 10:12:40;;;;;;;1.83;1.25;;;;;;;;;;5106783;28;20478;-49
2021/12/30 10:15:07;;;;;;;1.80;1.15;;;;;;;;;;5112792;27;20268;-49
2021/12/30 10:17:33;;;;;;;1.85;1.20;;;;;;;;;;5114277;28;20187;-49
2021/12/30 10:20:16;;;;;;;1.65;1.10;;;;;;;;;;5112279;28;20543;-48
2021/12/30 10:22:42;;;;;;;2.03;1.20;;;;;;;;;;5114594;28;20503;-48
2021/12/30 10:25:27;;;;;;;1.85;1.10;;;;;;;;;;5097697;28;20176;-49
2021/12/30 10:27:53;;;;;;;2.25;1.02;;;;;;;;;;5109507;28;20176;-49
2021/12/30 10:30:29;;;;;;;1.77;1.13;;;;;;;;;;5111734;28;20280;-49
2021/12/30 10:33:09;;;;;;;1.50;0.88;;;;;;;;;;5114786;28;20172;-49
2021/12/30 10:35:35;;;;;;;2.13;1.20;;;;;;;;;;5113275;28;20208;-49
2021/12/30 10:38:03;;;;;;;2.33;1.23;;;;;;;;;;5114903;28;20193;-49
2021/12/30 10:40:30;;;;;;;1.70;1.00;;;;;;;;;;5111366;28;20181;-49
2021/12/30 10:43:18;;;;;;;4.80;1.20;;;;;;;;;;5110150;28;20383;-49
2021/12/30 10:46:00;;;;;;;2.58;1.08;;;;;;;;;;5108368;28;20169;-50
2021/12/30 10:48:26;;;;;;;6.75;1.13;;;;;;;;;;5091698;28;20201;-49
2021/12/30 10:51:08;;;;;;;3.72;1.25;;;;;;;;;;5091863;28;20185;-50
2021/12/30 10:53:36;;;;;;;6.00;1.40;;;;;;;;;;5090811;28;20186;-49
2021/12/30 10:56:22;;;;;;;31.15;16.25;;;;;;;;;;5088648;28;20228;-50
2021/12/30 10:58:48;;;;;;;41.05;21.92;;;;;;;;;;5079743;28;20182;-49
2021/12/30 11:01:15;;;;;;;32.95;17.70;;;;;;;;;;5090628;28;20170;-49
2021/12/30 11:03:42;;;;;;;33.47;16.73;;;;;;;;;;5093053;28;20304;-49
2021/12/30 11:06:18;;;;;;;35.25;19.25;;;;;;;;;;5091566;28;20182;-50
2021/12/30 11:08:45;;;;;;;43.45;21.08;;;;;;;;;;5089806;28;20442;-49
2021/12/30 11:11:29;;;;;;;37.88;22.50;;;;;;;;;;5090802;28;20188;-49
2021/12/30 11:14:03;;;;;;;47.15;23.60;;;;;;;;;;5088105;28;20719;-49
2021/12/30 11:16:30;;;;;;;42.33;23.50;;;;;;;;;;5090164;28;20208;-49
2021/12/30 11:18:56;;;;;;;38.53;24.90;;;;;;;;;;5091337;28;20186;-50
2021/12/30 11:21:35;;;;;;;40.15;24.20;;;;;;;;;;5087369;28;20292;-49
2021/12/30 11:24:02;;;;;;;43.15;24.15;;;;;;;;;;5092218;28;20231;-50
2021/12/30 11:26:28;;;;;;;45.95;24.15;;;;;;;;;;5092242;28;20478;-49
2021/12/30 11:28:55;;;;;;;40.83;23.80;;;;;;;;;;5075117;28;20231;-49
2021/12/30 11:31:21;;;;;;;36.83;22.65;;;;;;;;;;5090580;28;20236;-49
2021/12/30 11:33:47;;;;;;;36.00;22.98;;;;;;;;;;5091669;28;20264;-49
2021/12/30 11:36:14;;;;;;;40.05;23.10;;;;;;;;;;5091121;28;20223;-49
2021/12/30 11:38:40;;;;;;;32.53;21.30;;;;;;;;;;5095265;28;20166;-50
2021/12/30 11:41:06;;;;;;;32.88;21.98;;;;;;;;;;5077985;28;20253;-50
2021/12/30 11:43:50;;;;;;;34.10;20.73;;;;;;;;;;5095775;28;20229;-50
2021/12/30 11:46:34;;;;;;;32.28;20.00;;;;;;;;;;5096333;28;20545;-50
2021/12/30 11:52:04;;;;;;;33.90;19.63;;;;;;;;;;5116331;28;20151;-49
2021/12/30 11:54:34;;;;;;;27.52;18.00;;;;;;;;;;5116231;28;20224;-49
2021/12/30 11:57:19;;;;;;;32.03;19.23;;;;;;;;;;5114458;28;20208;-49
2021/12/30 11:59:45;;;;;;;29.23;17.55;;;;;;;;;;5112487;28;20181;-49
2021/12/30 12:02:40;;;;;;;27.08;17.17;;;;;;;;;;5111517;28;20184;-50
2021/12/30 12:05:39;;;;;;;30.10;17.17;;;;;;;;;;5088067;28;20194;-49
2021/12/30 12:08:06;;;;;;;27.55;16.70;;;;;;;;;;5064278;28;20201;-49
2021/12/30 12:10:32;;;;;;;25.83;16.13;;;;;;;;;;5113080;28;20575;-50
2021/12/30 12:12:58;;;;;;;27.10;15.80;;;;;;;;;;5106000;28;20181;-49
2021/12/30 12:15:41;;;;;;;26.23;16.30;;;;;;;;;;5111819;28;20220;-49
2021/12/30 12:18:13;;;;;;;24.90;15.70;;;;;;;;;;5112250;28;20440;-49
2021/12/30 12:20:50;;;;;;;26.75;15.38;;;;;;;;;;5111425;28;20268;-49
2021/12/30 12:23:36;;;;;;;25.92;15.43;;;;;;;;;;5112336;28;20185;-49
2021/12/30 12:26:09;;;;;;;23.17;15.18;;;;;;;;;;5106751;28;20184;-49
2021/12/30 12:28:36;;;;;;;20.52;14.68;;;;;;;;;;5112386;28;20236;-49
2021/12/30 12:31:02;;;;;;;21.00;14.27;;;;;;;;;;5109585;28;20862;-49
2021/12/30 12:33:29;;;;;;;22.05;13.23;;;;;;;;;;5109836;28;20209;-50
2021/12/30 12:35:56;;;;;;;18.95;13.02;;;;;;;;;;5111532;28;20238;-51
2021/12/30 12:38:41;;;;;;;20.08;13.75;;;;;;;;;;5112950;28;20192;-49
2021/12/30 12:41:21;;;;;;;22.00;13.32;;;;;;;;;;5111323;28;20178;-50
2021/12/30 12:43:50;;;;;;;22.60;13.43;;;;;;;;;;5103982;28;20165;-50
2021/12/30 12:46:16;;;;;;;16.92;13.27;;;;;;;;;;5102569;28;20189;-49
2021/12/30 12:48:42;;;;;;;17.90;12.13;;;;;;;;;;5090429;28;20190;-49
2021/12/30 12:51:15;;;;;;;18.63;12.45;;;;;;;;;;5087940;28;20184;-49
2021/12/30 12:53:45;;;;;;;21.45;13.45;;;;;;;;;;5095180;28;20274;-49
2021/12/30 12:56:14;;;;;;;17.45;12.65;;;;;;;;;;5094067;28;20476;-49
2021/12/30 12:58:42;;;;;;;17.10;12.10;;;;;;;;;;5095822;28;20690;-50
2021/12/30 13:01:09;;;;;;;19.75;12.02;;;;;;;;;;5093794;28;20253;-50
2021/12/30 13:03:35;;;;;;;18.15;11.40;;;;;;;;;;5095815;28;20212;-49
2021/12/30 13:06:22;;;;;;;17.67;12.02;;;;;;;;;;5094699;28;20194;-50
2021/12/30 13:08:49;;;;;;;18.02;12.00;;;;;;;;;;5086518;28;20202;-49
2021/12/30 13:11:32;;;;;;;16.23;11.10;;;;;;;;;;5094905;28;20174;-50
2021/12/30 13:13:59;;;;;;;17.25;11.50;;;;;;;;;;5093176;28;20218;-49
2021/12/30 13:16:29;;;;;;;16.70;12.00;;;;;;;;;;5086882;28;20246;-50
2021/12/30 13:19:00;;;;;;;17.10;10.73;;;;;;;;;;5093074;28;20661;-50
2021/12/30 13:21:26;;;;;;;18.88;11.52;;;;;;;;;;5097347;28;20197;-49
2021/12/30 13:23:52;;;;;;;16.02;10.48;;;;;;;;;;5094544;28;20178;-49
2021/12/30 13:26:18;;;;;;;15.18;10.68;;;;;;;;;;5091430;28;20758;-50
2021/12/30 13:28:48;;;;;;;14.27;10.52;;;;;;;;;;5094716;28;20185;-49
2021/12/30 13:31:16;;;;;;;15.43;9.95;;;;;;;;;;5094437;28;20264;-49
2021/12/30 13:33:55;;;;;;;15.25;10.45;;;;;;;;;;5093440;28;20627;-50
2021/12/30 13:36:22;;;;;;;13.52;9.85;;;;;;;;;;5093046;28;20212;-49
2021/12/30 13:38:48;;;;;;;12.40;9.52;;;;;;;;;;5095517;28;20174;-49
2021/12/30 13:41:15;;;;;;;14.13;9.27;;;;;;;;;;5094247;28;20491;-49
2021/12/30 13:43:41;;;;;;;15.07;9.93;;;;;;;;;;5092291;28;20181;-50
2021/12/30 13:46:07;;;;;;;12.68;9.40;;;;;;;;;;5092504;28;20182;-50
2021/12/30 13:48:36;;;;;;;11.65;8.55;;;;;;;;;;5089146;28;20219;-50
2021/12/30 13:51:15;;;;;;;16.10;10.32;;;;;;;;;;5094070;28;20182;-49
2021/12/30 13:53:41;;;;;;;15.15;9.15;;;;;;;;;;5093299;28;20181;-49
2021/12/30 13:56:09;;;;;;;12.57;8.80;;;;;;;;;;5091858;28;20533;-50
2021/12/30 13:58:39;;;;;;;13.90;8.57;;;;;;;;;;5092071;28;20182;-49
2021/12/30 14:01:05;;;;;;;11.13;8.38;;;;;;;;;;5093048;28;20228;-49
2021/12/30 14:03:33;;;;;;;13.00;9.23;;;;;;;;;;5094146;28;20559;-50
2021/12/30 14:06:05;;;;;;;13.60;8.68;;;;;;;;;;5093212;28;20193;-49
2021/12/30 14:08:31;;;;;;;11.18;8.60;;;;;;;;;;5094960;28;20233;-50
2021/12/30 14:10:58;;;;;;;11.07;8.10;;;;;;;;;;5093264;28;20494;-49
2021/12/30 14:13:32;;;;;;;11.13;7.72;;;;;;;;;;5093708;28;20213;-50
2021/12/30 14:15:58;;;;;;;13.95;9.13;;;;;;;;;;5092315;28;20203;-49
2021/12/30 14:18:28;;;;;;;13.48;8.32;;;;;;;;;;5098384;28;20260;-50
2021/12/30 14:20:54;;;;;;;12.02;8.15;;;;;;;;;;5085487;28;20561;-49
2021/12/30 14:23:36;;;;;;;9.40;7.65;;;;;;;;;;5093208;28;20197;-50
2021/12/30 14:26:16;;;;;;;9.75;7.28;;;;;;;;;;5092005;28;20177;-49
2021/12/30 14:28:46;;;;;;;11.35;7.68;;;;;;;;;;5093464;28;20258;-49
2021/12/30 14:31:18;;;;;;;10.88;8.02;;;;;;;;;;5090987;28;20209;-51
2021/12/30 14:33:44;;;;;;;10.98;7.55;;;;;;;;;;5090112;28;20269;-50
2021/12/30 14:36:12;;;;;;;9.70;7.30;;;;;;;;;;5090415;28;20205;-49
2021/12/30 14:38:38;;;;;;;11.25;7.88;;;;;;;;;;5092587;28;20197;-49
2021/12/30 14:41:08;;;;;;;10.77;7.68;;;;;;;;;;5091220;28;20189;-49
2021/12/30 14:43:54;;;;;;;10.38;7.55;;;;;;;;;;5092314;28;20182;-49
2021/12/30 14:46:20;;;;;;;9.32;7.18;;;;;;;;;;5090735;28;20193;-50